AAL350 KSAN-KSFO
Flight info
| Callsign | AAL350 |
|---|---|
| Flight time | 1h 7m |
| Altitude | 38000 |
| Route | PADRZ2 IKAYE RIZIN SPLNT STOKD SERFR SERFR4 |
| Aircraft | A321/M-SDE3FGHIRWY/LB1 |
Departure
| Time | 2026-04-22 17:31 |
|---|---|
| Airport | San Diego International Airport (KSAN) |
Arrival
| Time | 2026-04-22 18:39 |
|---|---|
| Airport | San Francisco International Airport (KSFO) |
| Time | Latitude | Longitude | Altitude | Speed | Heading |
|---|---|---|---|---|---|
| 2026-04-22 16:51 | 32.73301 | -117.19888 | 20 ft | 0 kts | 96° |
| 2026-04-22 17:18 | 32.73302 | -117.19915 | 20 ft | 4 kts | 84° |
| 2026-04-22 17:19 | 32.73284 | -117.19951 | 24 ft | 2 kts | 325° |
| 2026-04-22 17:19 | 32.73283 | -117.19950 | 24 ft | 1 kts | 325° |
| 2026-04-22 17:25 | 32.73285 | -117.19951 | 21 ft | 1 kts | 325° |
| 2026-04-22 17:25 | 32.73296 | -117.19961 | 22 ft | 4 kts | 324° |
| 2026-04-22 17:25 | 32.73328 | -117.19980 | 23 ft | 8 kts | 350° |
| 2026-04-22 17:25 | 32.73398 | -117.19968 | 22 ft | 12 kts | 13° |
| 2026-04-22 17:26 | 32.73460 | -117.19943 | 23 ft | 8 kts | 39° |
| 2026-04-22 17:26 | 32.73473 | -117.19881 | 24 ft | 9 kts | 99° |
| 2026-04-22 17:26 | 32.73454 | -117.19791 | 24 ft | 13 kts | 105° |
| 2026-04-22 17:26 | 32.73427 | -117.19679 | 25 ft | 15 kts | 106° |
| 2026-04-22 17:27 | 32.73396 | -117.19553 | 24 ft | 16 kts | 106° |
| 2026-04-22 17:27 | 32.73363 | -117.19416 | 23 ft | 18 kts | 106° |
| 2026-04-22 17:27 | 32.73324 | -117.19257 | 20 ft | 21 kts | 106° |
| 2026-04-22 17:27 | 32.73282 | -117.19086 | 22 ft | 22 kts | 106° |
| 2026-04-22 17:28 | 32.73240 | -117.18908 | 24 ft | 23 kts | 106° |
| 2026-04-22 17:28 | 32.73195 | -117.18725 | 27 ft | 23 kts | 106° |
| 2026-04-22 17:28 | 32.73148 | -117.18531 | 21 ft | 26 kts | 105° |
| 2026-04-22 17:28 | 32.73101 | -117.18334 | 24 ft | 20 kts | 106° |
| 2026-04-22 17:29 | 32.73062 | -117.18172 | 19 ft | 21 kts | 106° |
| 2026-04-22 17:29 | 32.73020 | -117.18003 | 17 ft | 22 kts | 106° |
| 2026-04-22 17:29 | 32.72980 | -117.17841 | 17 ft | 17 kts | 105° |
| 2026-04-22 17:29 | 32.72958 | -117.17746 | 16 ft | 10 kts | 105° |
| 2026-04-22 17:30 | 32.72955 | -117.17667 | 18 ft | 9 kts | 78° |
| 2026-04-22 17:30 | 32.72977 | -117.17598 | 21 ft | 8 kts | 50° |
| 2026-04-22 17:30 | 32.73024 | -117.17610 | 20 ft | 9 kts | 302° |
| 2026-04-22 17:30 | 32.73048 | -117.17693 | 18 ft | 14 kts | 287° |
| 2026-04-22 17:31 | 32.73134 | -117.18043 | 19 ft | 83 kts | 286° |
| 2026-04-22 17:31 | 32.73360 | -117.18978 | 27 ft | 149 kts | 286° |
| 2026-04-22 17:31 | 32.73673 | -117.20253 | 567 ft | 159 kts | 289° |
| 2026-04-22 17:31 | 32.74044 | -117.21471 | 1496 ft | 156 kts | 298° |
| 2026-04-22 17:32 | 32.74620 | -117.22555 | 2179 ft | 162 kts | 304° |
| 2026-04-22 17:32 | 32.75305 | -117.23721 | 2579 ft | 183 kts | 304° |
| 2026-04-22 17:32 | 32.76073 | -117.25034 | 2897 ft | 205 kts | 304° |
| 2026-04-22 17:32 | 32.76924 | -117.26511 | 3161 ft | 230 kts | 304° |
| 2026-04-22 17:33 | 32.77542 | -117.27593 | 3399 ft | 246 kts | 303° |
| 2026-04-22 17:33 | 32.78856 | -117.29920 | 4379 ft | 258 kts | 303° |
| 2026-04-22 17:33 | 32.79854 | -117.31702 | 5279 ft | 261 kts | 303° |
| 2026-04-22 17:33 | 32.80919 | -117.33457 | 6187 ft | 263 kts | 306° |
| 2026-04-22 17:34 | 32.82042 | -117.35194 | 7049 ft | 266 kts | 306° |
| 2026-04-22 17:34 | 32.83187 | -117.36935 | 7819 ft | 270 kts | 306° |
| 2026-04-22 17:34 | 32.84354 | -117.38707 | 8596 ft | 274 kts | 305° |
| 2026-04-22 17:34 | 32.85536 | -117.40510 | 9388 ft | 278 kts | 304° |
| 2026-04-22 17:35 | 32.86730 | -117.42344 | 10167 ft | 283 kts | 304° |
| 2026-04-22 17:35 | 32.87969 | -117.44264 | 10466 ft | 304 kts | 303° |
| 2026-04-22 17:35 | 32.89302 | -117.46345 | 10663 ft | 328 kts | 304° |
| 2026-04-22 17:35 | 32.90731 | -117.48581 | 10810 ft | 351 kts | 304° |
| 2026-04-22 17:36 | 32.92238 | -117.50926 | 11271 ft | 361 kts | 304° |
| 2026-04-22 17:36 | 32.93781 | -117.53318 | 11945 ft | 365 kts | 304° |
| 2026-04-22 17:36 | 32.95334 | -117.55726 | 12660 ft | 368 kts | 303° |
| 2026-04-22 17:36 | 32.96895 | -117.58152 | 13386 ft | 371 kts | 303° |
| 2026-04-22 17:37 | 32.98451 | -117.60578 | 14109 ft | 374 kts | 303° |
| 2026-04-22 17:37 | 33.00038 | -117.63052 | 14783 ft | 377 kts | 303° |
| 2026-04-22 17:37 | 33.01636 | -117.65548 | 15435 ft | 380 kts | 303° |
| 2026-04-22 17:37 | 33.03241 | -117.68057 | 16087 ft | 383 kts | 303° |
| 2026-04-22 17:38 | 33.04864 | -117.70598 | 16752 ft | 386 kts | 302° |
| 2026-04-22 17:38 | 33.06589 | -117.73080 | 17400 ft | 393 kts | 309° |
| 2026-04-22 17:38 | 33.08650 | -117.75276 | 18035 ft | 400 kts | 314° |
| 2026-04-22 17:38 | 33.10779 | -117.77430 | 18643 ft | 403 kts | 314° |
| 2026-04-22 17:39 | 33.12929 | -117.79609 | 19180 ft | 406 kts | 314° |
| 2026-04-22 17:39 | 33.15091 | -117.81802 | 19697 ft | 409 kts | 314° |
| 2026-04-22 17:39 | 33.19447 | -117.86250 | 20710 ft | 414 kts | 313° |
| 2026-04-22 17:40 | 33.21574 | -117.88579 | 21215 ft | 415 kts | 310° |
| 2026-04-22 17:40 | 33.23637 | -117.91002 | 21694 ft | 417 kts | 309° |
| 2026-04-22 17:40 | 33.25672 | -117.93486 | 22190 ft | 419 kts | 308° |
| 2026-04-22 17:40 | 33.27705 | -117.95999 | 22666 ft | 422 kts | 308° |
| 2026-04-22 17:41 | 33.29753 | -117.98523 | 23136 ft | 425 kts | 308° |
| 2026-04-22 17:41 | 33.31832 | -118.01055 | 23614 ft | 428 kts | 308° |
| 2026-04-22 17:41 | 33.33936 | -118.03588 | 24028 ft | 431 kts | 309° |
| 2026-04-22 17:41 | 33.36068 | -118.06131 | 24436 ft | 433 kts | 309° |
| 2026-04-22 17:42 | 33.38206 | -118.08674 | 24850 ft | 435 kts | 309° |
| 2026-04-22 17:42 | 33.40353 | -118.11230 | 25271 ft | 436 kts | 309° |
| 2026-04-22 17:42 | 33.41780 | -118.12934 | 25536 ft | 437 kts | 308° |
| 2026-04-22 17:42 | 33.44371 | -118.16044 | 26017 ft | 439 kts | 308° |
| 2026-04-22 17:43 | 33.46528 | -118.18635 | 26421 ft | 440 kts | 308° |
| 2026-04-22 17:43 | 33.48691 | -118.21236 | 26821 ft | 442 kts | 308° |
| 2026-04-22 17:43 | 33.50866 | -118.23855 | 27219 ft | 444 kts | 308° |
| 2026-04-22 17:43 | 33.53046 | -118.26481 | 27607 ft | 446 kts | 308° |
| 2026-04-22 17:44 | 33.55232 | -118.29111 | 28026 ft | 446 kts | 308° |
| 2026-04-22 17:44 | 33.57418 | -118.31743 | 28568 ft | 443 kts | 308° |
| 2026-04-22 17:44 | 33.59560 | -118.34320 | 29101 ft | 441 kts | 308° |
| 2026-04-22 17:44 | 33.61719 | -118.36918 | 29622 ft | 439 kts | 308° |
| 2026-04-22 17:45 | 33.63869 | -118.39510 | 30164 ft | 437 kts | 308° |
| 2026-04-22 17:45 | 33.66009 | -118.42094 | 30629 ft | 435 kts | 308° |
| 2026-04-22 17:45 | 33.68129 | -118.44661 | 31099 ft | 432 kts | 307° |
| 2026-04-22 17:45 | 33.70238 | -118.47219 | 31584 ft | 429 kts | 307° |
| 2026-04-22 17:46 | 33.72334 | -118.49761 | 32095 ft | 425 kts | 307° |
| 2026-04-22 17:46 | 33.74405 | -118.52270 | 32608 ft | 422 kts | 307° |
| 2026-04-22 17:46 | 33.76461 | -118.54762 | 33121 ft | 418 kts | 306° |
| 2026-04-22 17:46 | 33.78505 | -118.57240 | 33611 ft | 415 kts | 306° |
| 2026-04-22 17:47 | 33.80524 | -118.59691 | 34106 ft | 411 kts | 306° |
| 2026-04-22 17:47 | 33.82525 | -118.62122 | 34539 ft | 408 kts | 306° |
| 2026-04-22 17:47 | 33.84510 | -118.64540 | 34944 ft | 405 kts | 306° |
| 2026-04-22 17:47 | 33.86482 | -118.66946 | 35335 ft | 402 kts | 306° |
| 2026-04-22 17:48 | 33.87781 | -118.68532 | 35601 ft | 400 kts | 306° |
| 2026-04-22 17:48 | 33.90386 | -118.71711 | 36119 ft | 397 kts | 306° |
| 2026-04-22 17:48 | 33.92324 | -118.74072 | 36515 ft | 395 kts | 305° |
| 2026-04-22 17:48 | 33.94250 | -118.76417 | 36896 ft | 392 kts | 305° |
| 2026-04-22 17:49 | 33.96162 | -118.78750 | 37268 ft | 390 kts | 305° |
| 2026-04-22 17:49 | 33.98058 | -118.81069 | 37623 ft | 388 kts | 305° |
| 2026-04-22 17:49 | 33.99946 | -118.83383 | 37963 ft | 386 kts | 305° |
| 2026-04-22 17:49 | 34.01825 | -118.85686 | 38184 ft | 385 kts | 305° |
| 2026-04-22 17:50 | 34.03698 | -118.87985 | 38219 ft | 385 kts | 304° |
| 2026-04-22 17:50 | 34.07446 | -118.92596 | 38219 ft | 385 kts | 304° |
| 2026-04-22 17:51 | 34.11202 | -118.97209 | 38222 ft | 385 kts | 305° |
| 2026-04-22 17:51 | 34.14247 | -119.01102 | 38219 ft | 379 kts | 299° |
| 2026-04-22 17:52 | 34.17415 | -119.07043 | 38213 ft | 373 kts | 294° |
| 2026-04-22 17:52 | 34.19708 | -119.11500 | 38222 ft | 374 kts | 294° |
| 2026-04-22 17:53 | 34.22459 | -119.16834 | 38218 ft | 374 kts | 294° |
| 2026-04-22 17:53 | 34.25196 | -119.22142 | 38234 ft | 374 kts | 294° |
| 2026-04-22 17:54 | 34.27939 | -119.27493 | 38236 ft | 375 kts | 294° |
| 2026-04-22 17:54 | 34.30687 | -119.32853 | 38237 ft | 375 kts | 294° |
| 2026-04-22 17:55 | 34.33438 | -119.38218 | 38224 ft | 375 kts | 294° |
| 2026-04-22 17:55 | 34.36180 | -119.43583 | 38231 ft | 375 kts | 294° |
| 2026-04-22 17:56 | 34.38926 | -119.48961 | 38229 ft | 375 kts | 294° |
| 2026-04-22 17:56 | 34.41889 | -119.54193 | 38232 ft | 385 kts | 303° |
| 2026-04-22 17:57 | 34.45658 | -119.58849 | 38234 ft | 388 kts | 305° |
| 2026-04-22 17:57 | 34.49454 | -119.63502 | 38234 ft | 388 kts | 305° |
| 2026-04-22 17:58 | 34.53223 | -119.68126 | 38237 ft | 387 kts | 305° |
| 2026-04-22 17:58 | 34.57029 | -119.72811 | 38242 ft | 387 kts | 305° |
| 2026-04-22 17:59 | 34.60793 | -119.77468 | 38242 ft | 386 kts | 305° |
| 2026-04-22 17:59 | 34.64557 | -119.82126 | 38261 ft | 386 kts | 305° |
| 2026-04-22 18:00 | 34.68296 | -119.86758 | 38266 ft | 386 kts | 305° |
| 2026-04-22 18:00 | 34.72056 | -119.91418 | 38270 ft | 386 kts | 305° |
| 2026-04-22 18:01 | 34.75807 | -119.96076 | 38265 ft | 385 kts | 305° |
| 2026-04-22 18:01 | 34.79543 | -120.00717 | 38262 ft | 384 kts | 305° |
| 2026-04-22 18:02 | 34.83279 | -120.05366 | 38262 ft | 384 kts | 305° |
| 2026-04-22 18:02 | 34.87017 | -120.10022 | 38271 ft | 385 kts | 305° |
| 2026-04-22 18:03 | 34.90757 | -120.14687 | 38295 ft | 385 kts | 305° |
| 2026-04-22 18:03 | 34.94488 | -120.19355 | 38294 ft | 384 kts | 304° |
| 2026-04-22 18:04 | 34.98186 | -120.23997 | 38298 ft | 384 kts | 305° |
| 2026-04-22 18:04 | 35.01786 | -120.28511 | 38298 ft | 385 kts | 304° |
| 2026-04-22 18:05 | 35.05520 | -120.33199 | 38298 ft | 385 kts | 304° |
| 2026-04-22 18:05 | 35.09259 | -120.37886 | 38296 ft | 386 kts | 306° |
| 2026-04-22 18:06 | 35.13184 | -120.42393 | 38296 ft | 389 kts | 308° |
| 2026-04-22 18:06 | 35.17222 | -120.46792 | 38299 ft | 389 kts | 308° |
| 2026-04-22 18:07 | 35.21250 | -120.51230 | 38297 ft | 388 kts | 307° |
| 2026-04-22 18:07 | 35.25205 | -120.55672 | 38300 ft | 387 kts | 307° |
| 2026-04-22 18:08 | 35.29179 | -120.60173 | 38297 ft | 389 kts | 307° |
| 2026-04-22 18:08 | 35.33159 | -120.64656 | 38295 ft | 389 kts | 307° |
| 2026-04-22 18:09 | 35.37137 | -120.69127 | 38293 ft | 389 kts | 307° |
| 2026-04-22 18:09 | 35.41115 | -120.73628 | 38293 ft | 389 kts | 307° |
| 2026-04-22 18:10 | 35.45078 | -120.78123 | 38296 ft | 388 kts | 307° |
| 2026-04-22 18:10 | 35.49125 | -120.82547 | 38306 ft | 395 kts | 312° |
| 2026-04-22 18:11 | 35.53517 | -120.86606 | 38311 ft | 396 kts | 312° |
| 2026-04-22 18:11 | 35.57879 | -120.90649 | 38309 ft | 396 kts | 312° |
| 2026-04-22 18:12 | 35.62271 | -120.94735 | 38307 ft | 396 kts | 312° |
| 2026-04-22 18:12 | 35.65952 | -120.98160 | 38316 ft | 396 kts | 312° |
| 2026-04-22 18:13 | 35.71053 | -121.02905 | 38307 ft | 396 kts | 312° |
| 2026-04-22 18:13 | 35.75447 | -121.06995 | 38303 ft | 395 kts | 312° |
| 2026-04-22 18:14 | 35.79825 | -121.11094 | 38304 ft | 395 kts | 312° |
| 2026-04-22 18:14 | 35.84202 | -121.15193 | 38308 ft | 395 kts | 312° |
| 2026-04-22 18:15 | 35.88514 | -121.19233 | 38307 ft | 395 kts | 312° |
| 2026-04-22 18:15 | 35.92892 | -121.23337 | 38297 ft | 395 kts | 312° |
| 2026-04-22 18:15 | 35.95076 | -121.25389 | 38016 ft | 394 kts | 312° |
| 2026-04-22 18:16 | 35.97254 | -121.27437 | 37753 ft | 393 kts | 312° |
| 2026-04-22 18:16 | 35.99429 | -121.29486 | 37486 ft | 393 kts | 312° |
| 2026-04-22 18:16 | 36.01607 | -121.31539 | 37222 ft | 394 kts | 312° |
| 2026-04-22 18:16 | 36.03785 | -121.33593 | 36967 ft | 395 kts | 312° |
| 2026-04-22 18:17 | 36.05972 | -121.35655 | 36707 ft | 396 kts | 312° |
| 2026-04-22 18:17 | 36.08267 | -121.37594 | 36455 ft | 402 kts | 317° |
| 2026-04-22 18:17 | 36.10637 | -121.39435 | 36177 ft | 402 kts | 317° |
| 2026-04-22 18:17 | 36.13010 | -121.41278 | 35525 ft | 404 kts | 317° |
| 2026-04-22 18:18 | 36.15405 | -121.43149 | 34730 ft | 409 kts | 317° |
| 2026-04-22 18:18 | 36.17822 | -121.45045 | 33816 ft | 414 kts | 317° |
| 2026-04-22 18:18 | 36.20262 | -121.46960 | 32921 ft | 416 kts | 317° |
| 2026-04-22 18:18 | 36.22721 | -121.48884 | 31975 ft | 421 kts | 318° |
| 2026-04-22 18:19 | 36.25198 | -121.50820 | 31081 ft | 423 kts | 319° |
| 2026-04-22 18:19 | 36.27672 | -121.52750 | 30039 ft | 428 kts | 319° |
| 2026-04-22 18:19 | 36.30240 | -121.54755 | 28869 ft | 432 kts | 319° |
| 2026-04-22 18:19 | 36.32542 | -121.56553 | 27958 ft | 432 kts | 320° |
| 2026-04-22 18:20 | 36.35087 | -121.58548 | 26827 ft | 436 kts | 320° |
| 2026-04-22 18:20 | 36.37659 | -121.60573 | 25734 ft | 440 kts | 320° |
| 2026-04-22 18:20 | 36.40222 | -121.62587 | 25361 ft | 428 kts | 320° |
| 2026-04-22 18:20 | 36.42691 | -121.64510 | 25238 ft | 410 kts | 320° |
| 2026-04-22 18:21 | 36.45054 | -121.66349 | 25118 ft | 393 kts | 320° |
| 2026-04-22 18:21 | 36.47324 | -121.68120 | 25014 ft | 378 kts | 320° |
| 2026-04-22 18:21 | 36.49516 | -121.69842 | 24767 ft | 368 kts | 320° |
| 2026-04-22 18:21 | 36.51661 | -121.71546 | 24520 ft | 366 kts | 320° |
| 2026-04-22 18:22 | 36.53798 | -121.73254 | 24075 ft | 365 kts | 320° |
| 2026-04-22 18:22 | 36.55936 | -121.74960 | 23522 ft | 364 kts | 320° |
| 2026-04-22 18:22 | 36.58062 | -121.76647 | 23016 ft | 361 kts | 320° |
| 2026-04-22 18:22 | 36.60174 | -121.78319 | 22532 ft | 359 kts | 320° |
| 2026-04-22 18:23 | 36.62272 | -121.79980 | 22042 ft | 356 kts | 320° |
| 2026-04-22 18:23 | 36.64362 | -121.81635 | 21544 ft | 354 kts | 321° |
| 2026-04-22 18:23 | 36.66435 | -121.83278 | 21062 ft | 352 kts | 321° |
| 2026-04-22 18:24 | 36.70501 | -121.86510 | 20126 ft | 346 kts | 321° |
| 2026-04-22 18:24 | 36.72527 | -121.88114 | 19643 ft | 344 kts | 322° |
| 2026-04-22 18:24 | 36.77039 | -121.90260 | 18513 ft | 353 kts | 340° |
| 2026-04-22 18:25 | 36.79398 | -121.90919 | 17889 ft | 344 kts | 340° |
| 2026-04-22 18:25 | 36.81714 | -121.91549 | 17230 ft | 337 kts | 341° |
| 2026-04-22 18:25 | 36.83995 | -121.92168 | 16578 ft | 333 kts | 341° |
| 2026-04-22 18:26 | 36.88452 | -121.93396 | 15247 ft | 324 kts | 340° |
| 2026-04-22 18:26 | 36.90636 | -121.94010 | 14551 ft | 320 kts | 340° |
| 2026-04-22 18:26 | 36.92794 | -121.94618 | 13832 ft | 316 kts | 341° |
| 2026-04-22 18:26 | 36.94926 | -121.95220 | 13040 ft | 313 kts | 341° |
| 2026-04-22 18:27 | 36.97016 | -121.95909 | 12244 ft | 310 kts | 338° |
| 2026-04-22 18:27 | 36.99077 | -121.96695 | 11497 ft | 311 kts | 338° |
| 2026-04-22 18:27 | 37.01131 | -121.97525 | 10992 ft | 310 kts | 338° |
| 2026-04-22 18:27 | 37.03187 | -121.98364 | 10485 ft | 310 kts | 338° |
| 2026-04-22 18:28 | 37.05236 | -121.99192 | 10114 ft | 306 kts | 339° |
| 2026-04-22 18:28 | 37.07217 | -121.99977 | 9963 ft | 289 kts | 339° |
| 2026-04-22 18:28 | 37.09106 | -122.00716 | 9644 ft | 281 kts | 339° |
| 2026-04-22 18:28 | 37.10958 | -122.01443 | 9337 ft | 277 kts | 339° |
| 2026-04-22 18:29 | 37.12764 | -122.02151 | 9169 ft | 268 kts | 339° |
| 2026-04-22 18:29 | 37.14537 | -122.02847 | 8835 ft | 266 kts | 339° |
| 2026-04-22 18:29 | 37.16298 | -122.03539 | 8492 ft | 265 kts | 339° |
| 2026-04-22 18:29 | 37.18053 | -122.04226 | 8162 ft | 264 kts | 339° |
| 2026-04-22 18:30 | 37.19211 | -122.04678 | 8034 ft | 262 kts | 339° |
| 2026-04-22 18:30 | 37.23299 | -122.06279 | 8034 ft | 266 kts | 339° |
| 2026-04-22 18:30 | 37.25065 | -122.06972 | 8034 ft | 266 kts | 339° |
| 2026-04-22 18:31 | 37.26826 | -122.07666 | 8023 ft | 266 kts | 339° |
| 2026-04-22 18:31 | 37.28591 | -122.08361 | 8007 ft | 265 kts | 339° |
| 2026-04-22 18:31 | 37.30341 | -122.09049 | 7678 ft | 263 kts | 339° |
| 2026-04-22 18:31 | 37.32091 | -122.09740 | 7339 ft | 264 kts | 339° |
| 2026-04-22 18:32 | 37.33839 | -122.10430 | 7012 ft | 263 kts | 339° |
| 2026-04-22 18:32 | 37.35588 | -122.11120 | 6661 ft | 263 kts | 339° |
| 2026-04-22 18:32 | 37.37329 | -122.11807 | 6380 ft | 259 kts | 339° |
| 2026-04-22 18:32 | 37.39024 | -122.12437 | 6256 ft | 249 kts | 341° |
| 2026-04-22 18:33 | 37.40637 | -122.12985 | 6136 ft | 231 kts | 341° |
| 2026-04-22 18:33 | 37.42144 | -122.13486 | 5841 ft | 219 kts | 341° |
| 2026-04-22 18:33 | 37.43595 | -122.13974 | 5271 ft | 214 kts | 341° |
| 2026-04-22 18:33 | 37.45042 | -122.14463 | 4639 ft | 215 kts | 341° |
| 2026-04-22 18:34 | 37.46482 | -122.14944 | 4070 ft | 213 kts | 341° |
| 2026-04-22 18:34 | 37.47914 | -122.15416 | 3548 ft | 213 kts | 342° |
| 2026-04-22 18:34 | 37.49302 | -122.15870 | 3327 ft | 199 kts | 342° |
| 2026-04-22 18:34 | 37.50626 | -122.16304 | 3045 ft | 195 kts | 341° |
| 2026-04-22 18:35 | 37.51960 | -122.16745 | 3031 ft | 200 kts | 341° |
| 2026-04-22 18:35 | 37.53205 | -122.17495 | 3025 ft | 198 kts | 321° |
| 2026-04-22 18:35 | 37.54149 | -122.18684 | 3012 ft | 195 kts | 302° |
| 2026-04-22 18:35 | 37.54804 | -122.20154 | 2837 ft | 188 kts | 294° |
| 2026-04-22 18:36 | 37.55398 | -122.21561 | 2603 ft | 177 kts | 295° |
| 2026-04-22 18:36 | 37.55967 | -122.22912 | 2391 ft | 172 kts | 295° |
| 2026-04-22 18:36 | 37.56524 | -122.24236 | 2148 ft | 170 kts | 295° |
| 2026-04-22 18:36 | 37.57078 | -122.25551 | 1920 ft | 169 kts | 294° |
| 2026-04-22 18:37 | 37.57630 | -122.26861 | 1693 ft | 169 kts | 295° |
| 2026-04-22 18:37 | 37.58175 | -122.28154 | 1452 ft | 163 kts | 295° |
| 2026-04-22 18:37 | 37.58519 | -122.28972 | 1331 ft | 155 kts | 295° |
| 2026-04-22 18:37 | 37.59154 | -122.30477 | 1024 ft | 140 kts | 294° |
| 2026-04-22 18:38 | 37.59610 | -122.31565 | 820 ft | 141 kts | 296° |
| 2026-04-22 18:38 | 37.60071 | -122.32662 | 632 ft | 146 kts | 297° |
| 2026-04-22 18:38 | 37.60552 | -122.33807 | 419 ft | 149 kts | 298° |
| 2026-04-22 18:39 | 37.61518 | -122.36112 | 47 ft | 148 kts | 298° |
| 2026-04-22 18:39 | 37.61947 | -122.37133 | 22 ft | 101 kts | 298° |
| 2026-04-22 18:39 | 37.62154 | -122.37614 | 21 ft | 32 kts | 297° |
| 2026-04-22 18:39 | 37.62224 | -122.37869 | 21 ft | 23 kts | 274° |
| 2026-04-22 18:40 | 37.62229 | -122.38039 | 21 ft | 15 kts | 269° |
| 2026-04-22 18:40 | 37.62230 | -122.38169 | 21 ft | 16 kts | 268° |
| 2026-04-22 18:40 | 37.62189 | -122.38278 | 21 ft | 9 kts | 223° |
| 2026-04-22 18:40 | 37.62127 | -122.38319 | 21 ft | 11 kts | 192° |
| 2026-04-22 18:41 | 37.62066 | -122.38266 | 21 ft | 12 kts | 122° |
| 2026-04-22 18:41 | 37.62023 | -122.38160 | 21 ft | 15 kts | 118° |
| 2026-04-22 18:41 | 37.61972 | -122.38043 | 21 ft | 14 kts | 121° |
| 2026-04-22 18:41 | 37.61882 | -122.37989 | 23 ft | 16 kts | 169° |
| 2026-04-22 18:42 | 37.61769 | -122.37949 | 21 ft | 18 kts | 171° |
| 2026-04-22 18:42 | 37.61645 | -122.37980 | 21 ft | 19 kts | 205° |
| 2026-04-22 18:42 | 37.61529 | -122.38056 | 21 ft | 18 kts | 207° |
| 2026-04-22 18:42 | 37.61410 | -122.38133 | 21 ft | 20 kts | 207° |
| 2026-04-22 18:43 | 37.61314 | -122.38218 | 21 ft | 14 kts | 239° |
| 2026-04-22 18:43 | 37.61260 | -122.38312 | 21 ft | 13 kts | 219° |
| 2026-04-22 18:43 | 37.61176 | -122.38372 | 21 ft | 13 kts | 208° |
| 2026-04-22 18:43 | 37.61120 | -122.38410 | 21 ft | 3 kts | 210° |
| 2026-04-22 18:44 | 37.61116 | -122.38433 | 22 ft | 4 kts | 273° |
| 2026-04-22 18:44 | 37.61125 | -122.38466 | 21 ft | 0 kts | 299° |
| 2026-04-22 18:44 | 37.61129 | -122.38475 | 21 ft | 0 kts | 297° |